Terminal Aerodrome Forecast
Issued by NWS

Home | Current Version | Previous Version | Text Only | Print | Product List | Glossary On
Versions: 1 2 3 4 5 6 7 8 9 10 11 12 13 14
900
FTUS44 KSJT 231720
TAFJCT
TAF
KJCT 231720Z 2318/2418 VRB04KT 5SM -RA FEW070 OVC090
     FM232100 08006KT P6SM VCTS BKN050CB
     FM240200 05006KT P6SM VCSH BKN050
     FM240600 VRB03KT P6SM OVC050=

USA.gov is the U.S. government's official web portal to all federal, state and local government web resources and services.